sensor_id;sensor_type;location;lat;lon;timestamp;temperature;humidity
57719;DHT22;43561;50.090;18.522;2022-12-24T00:05:22;4.80;99.90
57719;DHT22;43561;50.090;18.522;2022-12-24T00:15:24;4.70;99.90
57719;DHT22;43561;50.090;18.522;2022-12-24T00:25:26;4.80;99.90
57719;DHT22;43561;50.090;18.522;2022-12-24T00:35:28;4.90;99.90
57719;DHT22;43561;50.090;18.522;2022-12-24T00:45:30;4.90;99.90
57719;DHT22;43561;50.090;18.522;2022-12-24T00:55:32;5.00;99.90
57719;DHT22;43561;50.090;18.522;2022-12-24T01:05:34;5.20;99.90
57719;DHT22;43561;50.090;18.522;2022-12-24T01:15:36;5.20;99.90
57719;DHT22;43561;50.090;18.522;2022-12-24T01:25:38;5.20;99.90
57719;DHT22;43561;50.090;18.522;2022-12-24T01:35:41;5.20;99.90
57719;DHT22;43561;50.090;18.522;2022-12-24T01:55:50;5.30;99.90
57719;DHT22;43561;50.090;18.522;2022-12-24T02:05:56;5.40;99.90
57719;DHT22;43561;50.090;18.522;2022-12-24T02:16:09;5.40;99.90
57719;DHT22;43561;50.090;18.522;2022-12-24T02:36:37;5.50;99.90
57719;DHT22;43561;50.090;18.522;2022-12-24T02:46:41;5.40;99.90
57719;DHT22;43561;50.090;18.522;2022-12-24T02:57:05;5.30;99.90
57719;DHT22;43561;50.090;18.522;2022-12-24T03:17:37;5.10;99.90
57719;DHT22;43561;50.090;18.522;2022-12-24T03:27:40;5.10;99.90
57719;DHT22;43561;50.090;18.522;2022-12-24T03:37:42;5.10;99.90
57719;DHT22;43561;50.090;18.522;2022-12-24T03:47:44;5.10;99.90
57719;DHT22;43561;50.090;18.522;2022-12-24T03:57:46;5.20;99.90
57719;DHT22;43561;50.090;18.522;2022-12-24T04:07:48;5.30;99.90
57719;DHT22;43561;50.090;18.522;2022-12-24T04:17:50;5.30;99.90
57719;DHT22;43561;50.090;18.522;2022-12-24T04:27:51;5.40;99.90
57719;DHT22;43561;50.090;18.522;2022-12-24T04:37:53;5.40;99.90
57719;DHT22;43561;50.090;18.522;2022-12-24T04:47:55;5.40;99.90
57719;DHT22;43561;50.090;18.522;2022-12-24T04:57:57;5.40;99.90
57719;DHT22;43561;50.090;18.522;2022-12-24T05:07:59;5.60;99.90
57719;DHT22;43561;50.090;18.522;2022-12-24T05:18:01;5.90;99.90
57719;DHT22;43561;50.090;18.522;2022-12-24T05:28:03;5.90;99.90
57719;DHT22;43561;50.090;18.522;2022-12-24T05:38:05;5.90;99.90
57719;DHT22;43561;50.090;18.522;2022-12-24T05:48:07;5.90;99.90
57719;DHT22;43561;50.090;18.522;2022-12-24T05:58:09;5.90;99.90
57719;DHT22;43561;50.090;18.522;2022-12-24T06:08:11;5.80;99.90
57719;DHT22;43561;50.090;18.522;2022-12-24T06:18:13;5.70;99.90
57719;DHT22;43561;50.090;18.522;2022-12-24T06:28:15;5.70;99.90
57719;DHT22;43561;50.090;18.522;2022-12-24T06:38:17;5.60;99.90
57719;DHT22;43561;50.090;18.522;2022-12-24T06:48:19;5.60;99.90
57719;DHT22;43561;50.090;18.522;2022-12-24T06:58:21;5.70;99.90
57719;DHT22;43561;50.090;18.522;2022-12-24T07:08:23;5.80;99.90
57719;DHT22;43561;50.090;18.522;2022-12-24T07:18:25;5.80;99.90
57719;DHT22;43561;50.090;18.522;2022-12-24T07:28:27;5.70;99.90
57719;DHT22;43561;50.090;18.522;2022-12-24T07:38:29;5.70;99.90
57719;DHT22;43561;50.090;18.522;2022-12-24T07:48:32;5.70;99.90
57719;DHT22;43561;50.090;18.522;2022-12-24T07:58:34;5.80;99.90
57719;DHT22;43561;50.090;18.522;2022-12-24T08:08:36;5.80;99.90
57719;DHT22;43561;50.090;18.522;2022-12-24T08:18:38;6.30;99.90
57719;DHT22;43561;50.090;18.522;2022-12-24T08:28:40;6.40;99.90
57719;DHT22;43561;50.090;18.522;2022-12-24T08:38:42;6.50;99.90
57719;DHT22;43561;50.090;18.522;2022-12-24T08:48:44;7.10;99.90
57719;DHT22;43561;50.090;18.522;2022-12-24T08:58:46;7.30;99.90
57719;DHT22;43561;50.090;18.522;2022-12-24T20:03:36;7.20;99.90
57719;DHT22;43561;50.090;18.522;2022-12-24T20:13:39;7.00;99.90
57719;DHT22;43561;50.090;18.522;2022-12-24T20:23:41;7.00;99.90
57719;DHT22;43561;50.090;18.522;2022-12-24T20:33:44;7.00;99.90
57719;DHT22;43561;50.090;18.522;2022-12-24T20:43:47;7.00;99.90
57719;DHT22;43561;50.090;18.522;2022-12-24T20:53:54;7.10;99.90
57719;DHT22;43561;50.090;18.522;2022-12-24T21:03:57;7.20;99.90
57719;DHT22;43561;50.090;18.522;2022-12-24T21:13:59;7.10;99.90
57719;DHT22;43561;50.090;18.522;2022-12-24T21:24:03;6.90;99.90
57719;DHT22;43561;50.090;18.522;2022-12-24T21:34:05;6.90;99.90
57719;DHT22;43561;50.090;18.522;2022-12-24T21:44:07;6.90;99.90
57719;DHT22;43561;50.090;18.522;2022-12-24T21:54:09;6.90;99.90
57719;DHT22;43561;50.090;18.522;2022-12-24T22:04:13;6.70;99.90
57719;DHT22;43561;50.090;18.522;2022-12-24T22:14:15;6.80;99.90
57719;DHT22;43561;50.090;18.522;2022-12-24T22:24:18;6.80;99.90
57719;DHT22;43561;50.090;18.522;2022-12-24T22:34:20;6.80;99.90
57719;DHT22;43561;50.090;18.522;2022-12-24T22:44:22;6.90;99.90
57719;DHT22;43561;50.090;18.522;2022-12-24T22:54:24;6.70;99.90
57719;DHT22;43561;50.090;18.522;2022-12-24T23:04:26;6.70;99.90
57719;DHT22;43561;50.090;18.522;2022-12-24T23:14:28;6.50;99.90
57719;DHT22;43561;50.090;18.522;2022-12-24T23:24:31;6.50;99.90
57719;DHT22;43561;50.090;18.522;2022-12-24T23:34:34;6.30;99.90
57719;DHT22;43561;50.090;18.522;2022-12-24T23:44:36;6.00;99.90
57719;DHT22;43561;50.090;18.522;2022-12-24T23:54:38;5.70;99.90
